createdAt,value
2017-03-06T00:01:05.311Z,10.79
2017-03-06T00:02:14.385Z,10.74
2017-03-06T00:03:23.685Z,10.68
2017-03-06T00:04:32.690Z,10.76
2017-03-06T00:05:41.680Z,10.78
2017-03-06T00:06:50.657Z,10.76
2017-03-06T00:07:59.652Z,10.78
2017-03-06T00:09:08.901Z,10.78
2017-03-06T00:10:17.912Z,10.76
2017-03-06T00:11:26.935Z,10.73
2017-03-06T00:12:35.983Z,10.61
2017-03-06T00:13:44.982Z,10.64
2017-03-06T00:14:54.232Z,10.61
2017-03-06T00:16:03.315Z,10.63
2017-03-06T00:17:12.387Z,10.63
2017-03-06T00:18:21.788Z,10.6
2017-03-06T00:19:30.912Z,10.67
2017-03-06T00:20:40.134Z,10.67
2017-03-06T00:21:49.223Z,10.53
2017-03-06T00:22:58.199Z,10.59
2017-03-06T00:24:07.199Z,10.59
2017-03-06T00:25:16.186Z,10.61
2017-03-06T00:26:25.509Z,10.56
2017-03-06T00:27:34.507Z,10.56
2017-03-06T00:28:43.590Z,10.61
2017-03-06T00:29:52.664Z,10.6
2017-03-06T00:31:01.748Z,10.48
2017-03-06T00:32:11.132Z,10.47
2017-03-06T00:33:20.108Z,10.59
2017-03-06T00:34:30.329Z,10.48
2017-03-06T00:35:41.072Z,10.48
2017-03-06T00:36:50.687Z,10.48
2017-03-06T00:38:02.279Z,10.52
2017-03-06T00:39:11.339Z,10.47
2017-03-06T00:40:23.793Z,10.32
2017-03-06T00:41:35.322Z,10.34
2017-03-06T00:42:44.303Z,10.33
2017-03-06T00:43:54.528Z,10.34
2017-03-06T00:45:03.928Z,10.33
2017-03-06T00:46:15.786Z,10.22
2017-03-06T00:47:26.202Z,10.32
2017-03-06T00:48:35.436Z,10.18
2017-03-06T00:49:45.282Z,10.2
2017-03-06T00:50:54.390Z,10.25
2017-03-06T00:52:04.656Z,10.27
2017-03-06T00:53:13.649Z,10.25
2017-03-06T00:54:23.936Z,10.29
2017-03-06T00:55:33.175Z,10.26
2017-03-06T00:56:44.637Z,10.18
2017-03-06T00:57:54.001Z,10.22
2017-03-06T00:59:03.691Z,10.23
2017-03-06T01:00:13.993Z,10.17
2017-03-06T01:01:23.702Z,10.17
2017-03-06T01:02:34.618Z,10.12
2017-03-06T01:03:43.600Z,10.14
2017-03-06T01:04:55.590Z,10.17
2017-03-06T01:06:05.348Z,10.14
2017-03-06T01:07:15.360Z,10.09
2017-03-06T01:08:27.206Z,10.15
2017-03-06T01:09:36.275Z,10.14
2017-03-06T01:10:46.065Z,10.12
2017-03-06T01:11:55.313Z,10.17
2017-03-06T01:13:06.592Z,10.12
2017-03-06T01:14:19.070Z,10.09
2017-03-06T01:15:28.174Z,10.07
2017-03-06T01:16:38.378Z,10.08
2017-03-06T01:17:50.502Z,9.97
2017-03-06T01:19:01.657Z,9.94
2017-03-06T01:20:13.015Z,10.01
2017-03-06T01:21:25.061Z,9.86
2017-03-06T01:22:34.136Z,9.84
2017-03-06T01:23:46.434Z,9.79
2017-03-06T01:24:58.861Z,9.93
2017-03-06T01:26:07.933Z,9.74
2017-03-06T01:27:19.855Z,9.81
2017-03-06T01:28:31.647Z,9.79
2017-03-06T01:29:41.783Z,9.74
2017-03-06T01:30:55.048Z,9.76
2017-03-06T01:32:05.875Z,9.76
2017-03-06T01:33:16.286Z,9.81
2017-03-06T01:34:29.428Z,9.75
2017-03-06T01:35:43.322Z,9.66
2017-03-06T01:36:59.282Z,9.68
2017-03-06T01:38:10.512Z,9.64
2017-03-06T01:39:24.489Z,9.68
2017-03-06T01:40:35.853Z,9.64
2017-03-06T01:41:45.315Z,9.66
2017-03-06T01:42:56.960Z,9.72
2017-03-06T01:44:07.691Z,9.66
2017-03-06T01:45:19.864Z,9.69
2017-03-06T01:46:30.338Z,9.61
2017-03-06T01:47:41.876Z,9.71
2017-03-06T01:48:52.788Z,9.65
2017-03-06T01:50:01.873Z,9.66
2017-03-06T01:51:10.866Z,9.65
2017-03-06T01:52:19.886Z,9.65
2017-03-06T01:53:29.114Z,9.66
2017-03-06T01:54:38.091Z,9.65
2017-03-06T01:55:47.071Z,9.66
2017-03-06T01:56:56.075Z,9.61
2017-03-06T01:58:05.102Z,9.64
2017-03-06T01:59:14.339Z,9.64
2017-03-06T02:00:23.417Z,9.72
2017-03-06T02:01:32.402Z,9.61
2017-03-06T02:02:41.379Z,9.68
2017-03-06T02:03:50.374Z,9.68
2017-03-06T02:04:59.712Z,9.66
2017-03-06T02:06:08.710Z,9.65
2017-03-06T02:07:17.709Z,9.65
2017-03-06T02:08:26.685Z,9.69
2017-03-06T02:09:35.659Z,9.64
2017-03-06T02:10:44.884Z,9.69
2017-03-06T02:11:53.960Z,9.68
2017-03-06T02:13:02.960Z,9.69
2017-03-06T02:14:11.945Z,9.69
2017-03-06T02:15:21.019Z,9.65
2017-03-06T02:16:30.334Z,9.66
2017-03-06T02:17:39.308Z,9.69
2017-03-06T02:18:48.297Z,9.58
2017-03-06T02:19:57.301Z,9.69
2017-03-06T02:21:06.291Z,9.71
2017-03-06T02:22:15.549Z,9.72
2017-03-06T02:23:24.611Z,9.68
2017-03-06T02:24:33.596Z,9.74
2017-03-06T02:25:42.580Z,9.66
2017-03-06T02:26:51.746Z,9.69
2017-03-06T02:28:00.987Z,9.75
2017-03-06T02:29:09.960Z,9.71
2017-03-06T02:30:19.027Z,9.72
2017-03-06T02:31:28.111Z,9.78
2017-03-06T02:32:37.089Z,9.72
2017-03-06T02:33:46.328Z,9.71
2017-03-06T02:34:55.322Z,9.69
2017-03-06T02:36:04.301Z,9.76
2017-03-06T02:37:13.286Z,9.74
2017-03-06T02:38:22.265Z,9.75
2017-03-06T02:39:31.988Z,9.74
2017-03-06T02:40:40.974Z,9.79
2017-03-06T02:41:49.941Z,9.72
2017-03-06T02:42:58.944Z,9.84
2017-03-06T02:44:07.921Z,9.84
2017-03-06T02:45:17.244Z,9.78
2017-03-06T02:46:26.298Z,9.81
2017-03-06T02:47:35.448Z,9.86
2017-03-06T02:48:44.420Z,9.89
2017-03-06T02:49:53.456Z,9.86
2017-03-06T02:51:03.107Z,9.81
2017-03-06T02:52:12.093Z,9.87
2017-03-06T02:53:21.063Z,9.87
2017-03-06T02:54:30.124Z,9.89
2017-03-06T02:55:39.110Z,9.75
2017-03-06T02:56:48.344Z,9.72
2017-03-06T02:57:57.319Z,9.79
2017-03-06T02:59:06.324Z,9.68
2017-03-06T03:00:15.323Z,9.69
2017-03-06T03:01:24.306Z,9.71
2017-03-06T03:02:33.998Z,9.74
2017-03-06T03:03:42.976Z,9.71
2017-03-06T03:04:51.972Z,9.71
2017-03-06T03:06:01.132Z,9.71
2017-03-06T03:07:10.513Z,9.65
2017-03-06T03:08:19.755Z,9.76
2017-03-06T03:09:28.733Z,9.65
2017-03-06T03:10:37.709Z,9.64
2017-03-06T03:11:46.771Z,9.75
2017-03-06T03:12:55.762Z,9.61
2017-03-06T03:14:05.016Z,9.72
2017-03-06T03:15:13.991Z,9.69
2017-03-06T03:16:22.983Z,9.64
2017-03-06T03:17:31.963Z,9.65
2017-03-06T03:18:41.045Z,9.56
2017-03-06T03:19:50.285Z,9.65
2017-03-06T03:20:59.260Z,9.53
2017-03-06T03:22:08.243Z,9.56
2017-03-06T03:23:17.220Z,9.48
2017-03-06T03:24:26.206Z,9.51
2017-03-06T03:25:35.441Z,9.48
2017-03-06T03:26:44.414Z,9.53
2017-03-06T03:27:53.406Z,9.61
2017-03-06T03:29:02.376Z,9.5
2017-03-06T03:30:11.348Z,9.56
2017-03-06T03:31:20.577Z,9.53
2017-03-06T03:32:29.655Z,9.47
2017-03-06T03:33:38.644Z,9.53
2017-03-06T03:34:47.629Z,9.48
2017-03-06T03:35:57.042Z,9.42
2017-03-06T03:37:06.266Z,9.47
2017-03-06T03:38:15.238Z,9.5
2017-03-06T03:39:24.244Z,9.4
2017-03-06T03:40:33.215Z,9.39
2017-03-06T03:41:42.212Z,9.4
2017-03-06T03:42:51.492Z,9.33
2017-03-06T03:44:00.474Z,9.31
2017-03-06T03:45:09.470Z,9.32
2017-03-06T03:46:18.445Z,9.28
2017-03-06T03:47:27.440Z,9.23
2017-03-06T03:48:36.675Z,9.21
2017-03-06T03:49:45.674Z,9.2
2017-03-06T03:50:54.653Z,9.23
2017-03-06T03:52:03.629Z,9.24
2017-03-06T03:53:12.629Z,9.17
2017-03-06T03:54:21.880Z,9.13
2017-03-06T03:55:30.860Z,9.13
2017-03-06T03:56:39.949Z,9.11
2017-03-06T03:57:48.924Z,9.13
2017-03-06T03:58:58.330Z,9.13
2017-03-06T04:00:07.553Z,9.08
2017-03-06T04:01:16.565Z,9.13
2017-03-06T04:02:25.552Z,9.05
2017-03-06T04:03:34.543Z,9.11
2017-03-06T04:04:43.939Z,9.11
2017-03-06T04:05:53.277Z,9.04
2017-03-06T04:07:02.279Z,9.1
2017-03-06T04:08:11.252Z,9.1
2017-03-06T04:09:20.247Z,9.02
2017-03-06T04:10:29.223Z,9.11
2017-03-06T04:11:38.525Z,9.04
2017-03-06T04:12:47.616Z,9.13
2017-03-06T04:13:56.598Z,8.99
2017-03-06T04:15:05.570Z,9.08
2017-03-06T04:16:15.068Z,9.01
2017-03-06T04:17:24.299Z,9.04
2017-03-06T04:18:33.284Z,9.02
2017-03-06T04:19:42.258Z,9.1
2017-03-06T04:20:51.249Z,9.02
2017-03-06T04:22:00.232Z,9.11
2017-03-06T04:23:09.458Z,9.1
2017-03-06T04:24:18.447Z,9.05
2017-03-06T04:25:27.440Z,9.04
2017-03-06T04:26:36.504Z,9.02
2017-03-06T04:27:45.473Z,9.08
2017-03-06T04:28:54.701Z,9.04
2017-03-06T04:30:03.869Z,8.96
2017-03-06T04:31:13.255Z,8.99
2017-03-06T04:32:22.249Z,8.89
2017-03-06T04:33:31.222Z,8.91
2017-03-06T04:34:40.473Z,8.94
2017-03-06T04:35:49.453Z,8.86
2017-03-06T04:36:58.515Z,8.89
2017-03-06T04:38:07.487Z,8.91
2017-03-06T04:39:16.548Z,8.91
2017-03-06T04:40:25.780Z,8.87
2017-03-06T04:41:34.796Z,8.81
2017-03-06T04:42:43.781Z,8.89
2017-03-06T04:43:52.773Z,8.87
2017-03-06T04:45:01.743Z,8.92
2017-03-06T04:46:10.973Z,8.92
2017-03-06T04:47:20.367Z,8.84
2017-03-06T04:48:29.350Z,8.95
2017-03-06T04:49:38.319Z,8.89
2017-03-06T04:50:47.333Z,8.86
2017-03-06T04:51:56.607Z,8.89
2017-03-06T04:53:05.593Z,8.84
2017-03-06T04:54:14.570Z,8.89
2017-03-06T04:55:23.642Z,8.8
2017-03-06T04:56:32.626Z,8.86
2017-03-06T04:57:41.910Z,8.81
2017-03-06T04:58:50.906Z,8.76
2017-03-06T04:59:59.879Z,8.7
2017-03-06T05:01:08.873Z,8.77
2017-03-06T05:02:17.862Z,8.65
2017-03-06T05:03:27.157Z,8.66
2017-03-06T05:04:36.139Z,8.63
2017-03-06T05:05:45.207Z,8.61
2017-03-06T05:06:54.178Z,8.56
2017-03-06T05:08:03.173Z,8.61
2017-03-06T05:09:12.411Z,8.61
2017-03-06T05:10:21.570Z,8.61
2017-03-06T05:11:30.555Z,8.53
2017-03-06T05:12:39.940Z,8.56
2017-03-06T05:13:48.933Z,8.47
2017-03-06T05:14:58.214Z,8.52
2017-03-06T05:16:07.286Z,8.56
2017-03-06T05:17:16.283Z,8.55
2017-03-06T05:18:25.257Z,8.53
2017-03-06T05:19:34.246Z,8.5
2017-03-06T05:20:43.901Z,8.53
2017-03-06T05:21:52.887Z,8.59
2017-03-06T05:23:02.609Z,8.47
2017-03-06T05:24:11.579Z,8.52
2017-03-06T05:25:20.575Z,8.56
2017-03-06T05:26:29.868Z,8.59
2017-03-06T05:27:38.848Z,8.56
2017-03-06T05:28:47.993Z,8.53
2017-03-06T05:29:57.074Z,8.62
2017-03-06T05:31:06.051Z,8.53
2017-03-06T05:32:15.426Z,8.58
2017-03-06T05:33:24.421Z,8.52
2017-03-06T05:34:33.401Z,8.62
2017-03-06T05:35:42.466Z,8.55
2017-03-06T05:36:51.457Z,8.53
2017-03-06T05:38:00.689Z,8.48
2017-03-06T05:39:09.765Z,8.53
2017-03-06T05:40:18.778Z,8.53
2017-03-06T05:41:27.766Z,8.5
2017-03-06T05:42:36.774Z,8.55
2017-03-06T05:43:46.024Z,8.63
2017-03-06T05:44:55.027Z,8.61
2017-03-06T05:46:04.012Z,8.52
2017-03-06T05:47:13.022Z,8.59
2017-03-06T05:48:22.009Z,8.56
2017-03-06T05:49:31.414Z,8.47
2017-03-06T05:50:40.525Z,8.53
2017-03-06T05:51:49.508Z,8.59
2017-03-06T05:52:58.578Z,8.53
2017-03-06T05:54:07.564Z,8.45
2017-03-06T05:55:17.202Z,8.55
2017-03-06T05:56:26.185Z,8.58
2017-03-06T05:57:35.175Z,8.47
2017-03-06T05:58:44.245Z,8.53
2017-03-06T05:59:53.217Z,8.5
2017-03-06T06:01:02.510Z,8.48
2017-03-06T06:02:11.918Z,8.56
2017-03-06T06:03:20.982Z,8.47
2017-03-06T06:04:29.963Z,8.59
2017-03-06T06:05:38.957Z,8.45
2017-03-06T06:06:48.183Z,8.5
2017-03-06T06:07:57.169Z,8.48
2017-03-06T06:09:06.144Z,8.48
2017-03-06T06:10:15.133Z,8.52
2017-03-06T06:11:24.122Z,8.61
2017-03-06T06:12:33.363Z,8.5
2017-03-06T06:13:42.364Z,8.61
2017-03-06T06:14:51.355Z,8.48
2017-03-06T06:16:00.333Z,8.62
2017-03-06T06:17:09.301Z,8.63
2017-03-06T06:18:18.576Z,8.61
2017-03-06T06:19:28.028Z,8.68
2017-03-06T06:20:37.013Z,8.65
2017-03-06T06:21:46.007Z,8.71
2017-03-06T06:22:54.990Z,8.68
2017-03-06T06:24:04.253Z,8.71
2017-03-06T06:25:13.631Z,8.77
2017-03-06T06:26:22.710Z,8.83
2017-03-06T06:27:31.689Z,8.7
2017-03-06T06:28:40.659Z,8.77
2017-03-06T06:29:50.115Z,8.83
2017-03-06T06:30:59.109Z,8.83
2017-03-06T06:32:08.087Z,8.86
2017-03-06T06:33:17.053Z,8.91
2017-03-06T06:34:26.140Z,8.86
2017-03-06T06:35:35.424Z,8.98
2017-03-06T06:36:44.417Z,8.89
2017-03-06T06:37:53.405Z,8.96
2017-03-06T06:39:02.394Z,9.01
2017-03-06T06:40:11.410Z,9.04
2017-03-06T06:41:20.712Z,9.02
2017-03-06T06:42:29.699Z,9.02
2017-03-06T06:43:38.784Z,9.05
2017-03-06T06:44:47.786Z,9.02
2017-03-06T06:45:56.859Z,9.08
2017-03-06T06:47:06.091Z,9.05
2017-03-06T06:48:15.062Z,9.08
2017-03-06T06:49:24.039Z,8.99
2017-03-06T06:50:33.019Z,9.08
2017-03-06T06:51:42.081Z,9.08
2017-03-06T06:52:51.307Z,9.04
2017-03-06T06:54:00.287Z,9.13
2017-03-06T06:55:09.343Z,9.08
2017-03-06T06:56:18.334Z,9.1
2017-03-06T06:57:28.147Z,9.13
2017-03-06T06:58:37.385Z,9.23
2017-03-06T06:59:46.362Z,9.24
2017-03-06T07:00:55.339Z,9.21
2017-03-06T07:02:04.327Z,9.29
2017-03-06T07:03:13.405Z,9.28
2017-03-06T07:04:22.763Z,9.31
2017-03-06T07:05:31.756Z,9.38
2017-03-06T07:06:40.769Z,9.39
2017-03-06T07:07:50.236Z,9.43
2017-03-06T07:08:59.300Z,9.47
2017-03-06T07:10:08.576Z,9.53
2017-03-06T07:11:17.974Z,9.48
2017-03-06T07:12:26.985Z,9.43
2017-03-06T07:13:35.997Z,9.5
2017-03-06T07:14:45.001Z,9.51
2017-03-06T07:15:54.762Z,9.54
2017-03-06T07:17:04.058Z,9.56
2017-03-06T07:18:13.040Z,9.54
2017-03-06T07:19:22.025Z,9.53
2017-03-06T07:20:31.103Z,9.64
2017-03-06T07:21:40.334Z,9.66
2017-03-06T07:22:49.324Z,9.65
2017-03-06T07:23:58.495Z,9.71
2017-03-06T07:25:07.534Z,9.81
2017-03-06T07:26:16.641Z,9.79
2017-03-06T07:27:25.964Z,9.79
2017-03-06T07:28:34.949Z,9.75
2017-03-06T07:29:43.931Z,9.76
2017-03-06T07:30:53.017Z,9.89
2017-03-06T07:32:02.060Z,9.87
2017-03-06T07:33:11.418Z,9.89
2017-03-06T07:34:20.555Z,9.93
2017-03-06T07:35:29.564Z,9.99
2017-03-06T07:36:38.995Z,10.01
2017-03-06T07:37:48.147Z,10.08
2017-03-06T07:38:57.374Z,10.11
2017-03-06T07:40:06.418Z,10.08
2017-03-06T07:41:15.409Z,10.05
2017-03-06T07:42:24.417Z,10.15
2017-03-06T07:43:33.392Z,10.14
2017-03-06T07:44:42.719Z,10.17
2017-03-06T07:45:51.764Z,10.15
2017-03-06T07:47:01.037Z,10.18
2017-03-06T07:48:10.148Z,10.17
2017-03-06T07:49:19.161Z,10.22
2017-03-06T07:50:28.514Z,10.22
2017-03-06T07:51:37.574Z,10.25
2017-03-06T07:52:46.677Z,10.27
2017-03-06T07:53:55.664Z,10.32
2017-03-06T07:55:04.658Z,10.29
2017-03-06T07:56:13.898Z,10.36
2017-03-06T07:57:22.874Z,10.33
2017-03-06T07:58:32.120Z,10.42
2017-03-06T07:59:41.094Z,10.34
2017-03-06T08:00:50.144Z,10.42
2017-03-06T08:01:59.485Z,10.45
2017-03-06T08:03:08.633Z,10.47
2017-03-06T08:04:17.633Z,10.47
2017-03-06T08:05:26.672Z,10.53
2017-03-06T08:06:35.646Z,10.48
2017-03-06T08:07:44.955Z,10.45
2017-03-06T08:08:54.176Z,10.53
2017-03-06T08:10:03.174Z,10.51
2017-03-06T08:11:12.152Z,10.51
2017-03-06T08:12:21.127Z,10.55
2017-03-06T08:13:30.359Z,10.61
2017-03-06T08:14:39.436Z,10.53
2017-03-06T08:15:48.645Z,10.59
2017-03-06T08:16:57.653Z,10.61
2017-03-06T08:18:06.641Z,10.67
2017-03-06T08:19:15.990Z,10.76
2017-03-06T08:20:25.019Z,10.78
2017-03-06T08:21:34.101Z,10.78
2017-03-06T08:22:43.114Z,10.79
2017-03-06T08:23:52.572Z,10.79
2017-03-06T08:25:02.040Z,10.78
2017-03-06T08:26:11.189Z,10.79
2017-03-06T08:27:20.251Z,10.76
2017-03-06T08:28:29.282Z,10.85
2017-03-06T08:29:38.451Z,10.94
2017-03-06T08:30:47.801Z,11
2017-03-06T08:31:56.933Z,11.03
2017-03-06T08:33:05.963Z,11.02
2017-03-06T08:34:15.456Z,11.1
2017-03-06T08:35:24.546Z,11.15
2017-03-06T08:36:33.772Z,11.17
2017-03-06T08:37:43.035Z,11.22
2017-03-06T08:38:52.835Z,11.29
2017-03-06T08:40:01.919Z,11.29
2017-03-06T08:41:10.903Z,11.35
2017-03-06T08:42:20.247Z,11.4
2017-03-06T08:43:29.316Z,11.36
2017-03-06T08:44:38.423Z,11.46
2017-03-06T08:45:47.914Z,11.32
2017-03-06T08:46:56.905Z,11.44
2017-03-06T08:48:06.290Z,11.44
2017-03-06T08:49:15.286Z,11.61
2017-03-06T08:50:24.273Z,11.7
2017-03-06T08:51:33.252Z,11.69
2017-03-06T08:52:42.243Z,11.79
2017-03-06T08:53:51.860Z,11.79
2017-03-06T08:55:00.915Z,11.88
2017-03-06T08:56:10.111Z,11.94
2017-03-06T08:57:19.101Z,11.96
2017-03-06T08:58:28.202Z,12.09
2017-03-06T08:59:37.631Z,12.16
2017-03-06T09:00:47.113Z,12.1
2017-03-06T09:01:56.189Z,12.05
2017-03-06T09:03:05.234Z,12.05
2017-03-06T09:04:14.246Z,12.07
2017-03-06T09:05:23.615Z,11.99
2017-03-06T09:06:32.742Z,11.96
2017-03-06T09:07:41.732Z,11.96
2017-03-06T09:08:50.738Z,11.95
2017-03-06T09:09:59.855Z,12.13
2017-03-06T09:11:09.574Z,12.09
2017-03-06T09:12:18.611Z,12.07
2017-03-06T09:13:27.600Z,12.13
2017-03-06T09:14:36.863Z,12.05
2017-03-06T09:15:45.851Z,12.24
2017-03-06T09:16:55.092Z,12.24
2017-03-06T09:18:04.189Z,12.28
2017-03-06T09:19:13.171Z,12.32
2017-03-06T09:20:22.234Z,12.29
2017-03-06T09:21:31.216Z,12.32
2017-03-06T09:22:40.910Z,12.32
2017-03-06T09:23:49.890Z,12.46
2017-03-06T09:24:58.873Z,12.53
2017-03-06T09:26:08.059Z,12.54
2017-03-06T09:27:17.067Z,12.71
2017-03-06T09:28:26.479Z,12.65
2017-03-06T09:29:35.464Z,12.78
2017-03-06T09:30:44.555Z,12.71
2017-03-06T09:31:53.644Z,12.7
2017-03-06T09:33:02.632Z,12.7
2017-03-06T09:34:12.203Z,12.7
2017-03-06T09:35:21.185Z,12.68
2017-03-06T09:36:30.290Z,12.65
2017-03-06T09:37:39.276Z,12.59
2017-03-06T09:38:48.349Z,12.68
2017-03-06T09:39:58.052Z,12.74
2017-03-06T09:41:07.048Z,12.78
2017-03-06T09:42:16.052Z,12.74
2017-03-06T09:43:25.054Z,12.72
2017-03-06T09:44:34.112Z,12.7
2017-03-06T09:45:43.821Z,12.72
2017-03-06T09:46:52.834Z,12.77
2017-03-06T09:48:01.846Z,12.75
2017-03-06T09:49:10.915Z,12.79
2017-03-06T09:50:19.898Z,12.72
2017-03-06T09:51:29.210Z,12.72
2017-03-06T09:52:38.314Z,12.75
2017-03-06T09:53:47.363Z,12.71
2017-03-06T09:54:56.497Z,12.78
2017-03-06T09:56:05.751Z,12.74
2017-03-06T09:57:15.141Z,12.85
2017-03-06T09:58:24.225Z,12.86
2017-03-06T09:59:33.290Z,12.74
2017-03-06T10:00:42.274Z,12.68
2017-03-06T10:01:51.402Z,12.78
2017-03-06T10:03:00.692Z,12.7
2017-03-06T10:04:09.682Z,12.67
2017-03-06T10:05:18.747Z,12.75
2017-03-06T10:06:27.748Z,12.68
2017-03-06T10:07:36.723Z,12.68
2017-03-06T10:08:46.029Z,12.68
2017-03-06T10:09:55.011Z,12.71
2017-03-06T10:11:04.039Z,12.72
2017-03-06T10:12:13.198Z,12.78
2017-03-06T10:13:22.741Z,12.74
2017-03-06T10:14:32.116Z,12.87
2017-03-06T10:15:41.278Z,12.82
2017-03-06T10:16:50.325Z,12.89
2017-03-06T10:17:59.312Z,12.86
2017-03-06T10:19:08.309Z,12.87
2017-03-06T10:20:17.602Z,13.01
2017-03-06T10:21:26.622Z,12.96
2017-03-06T10:22:35.627Z,12.97
2017-03-06T10:23:44.712Z,12.9
2017-03-06T10:24:53.795Z,12.92
2017-03-06T10:26:03.088Z,12.89
2017-03-06T10:27:12.089Z,12.95
2017-03-06T10:28:21.135Z,13
2017-03-06T10:29:30.197Z,13.03
2017-03-06T10:30:39.683Z,13.11
2017-03-06T10:31:49.343Z,13.2
2017-03-06T10:32:58.320Z,13.17
2017-03-06T10:34:07.415Z,13.22
2017-03-06T10:35:16.683Z,13.17
2017-03-06T10:36:25.923Z,13.2
2017-03-06T10:37:35.230Z,13.26
2017-03-06T10:38:44.227Z,13.23
2017-03-06T10:39:53.305Z,13.26
2017-03-06T10:41:02.415Z,13.3
2017-03-06T10:42:11.455Z,13.3
2017-03-06T10:43:20.754Z,13.33
2017-03-06T10:44:30.284Z,13.36
2017-03-06T10:45:39.547Z,13.39
2017-03-06T10:46:48.647Z,13.26
2017-03-06T10:47:57.640Z,13.36
2017-03-06T10:49:07.620Z,13.28
2017-03-06T10:50:17.013Z,13.29
2017-03-06T10:51:25.989Z,13.28
2017-03-06T10:52:34.967Z,13.25
2017-03-06T10:53:43.954Z,13.26
2017-03-06T10:54:53.207Z,13.28
2017-03-06T10:56:08.219Z,13.36
2017-03-06T10:57:22.594Z,13.22
2017-03-06T10:58:31.572Z,13.17
2017-03-06T10:59:40.592Z,13.26
2017-03-06T11:00:49.886Z,13.15
2017-03-06T11:01:58.860Z,13.15
2017-03-06T11:03:07.871Z,13.04
2017-03-06T11:04:16.873Z,13.03
2017-03-06T11:05:25.855Z,12.93
2017-03-06T11:06:35.081Z,12.89
2017-03-06T11:07:44.147Z,12.89
2017-03-06T11:08:53.140Z,12.74
2017-03-06T11:10:02.129Z,12.74
2017-03-06T11:11:11.149Z,12.67
2017-03-06T11:12:20.384Z,12.7
2017-03-06T11:13:29.384Z,12.65
2017-03-06T11:14:38.415Z,12.56
2017-03-06T11:15:47.388Z,12.46
2017-03-06T11:16:56.380Z,12.5
2017-03-06T11:18:05.616Z,12.45
2017-03-06T11:19:14.610Z,12.41
2017-03-06T11:20:23.587Z,12.37
2017-03-06T11:21:32.567Z,12.45
2017-03-06T11:22:41.591Z,12.42
2017-03-06T11:23:50.917Z,12.49
2017-03-06T11:25:00.660Z,12.38
2017-03-06T11:26:09.739Z,12.47
2017-03-06T11:27:18.726Z,12.42
2017-03-06T11:28:27.707Z,12.47
2017-03-06T11:29:37.014Z,12.49
2017-03-06T11:30:46.004Z,12.47
2017-03-06T11:31:55.011Z,12.41
2017-03-06T11:33:04.008Z,12.39
2017-03-06T11:34:12.997Z,12.38
2017-03-06T11:35:22.235Z,12.41
2017-03-06T11:36:31.224Z,12.47
2017-03-06T11:37:40.210Z,12.42
2017-03-06T11:38:49.201Z,12.45
2017-03-06T11:39:58.300Z,12.37
2017-03-06T11:41:07.593Z,12.41
2017-03-06T11:42:16.572Z,12.31
2017-03-06T11:43:26.127Z,12.31
2017-03-06T11:44:35.150Z,12.31
2017-03-06T11:45:44.176Z,12.32
2017-03-06T11:46:53.679Z,12.32
2017-03-06T11:48:02.667Z,12.17
2017-03-06T11:49:11.655Z,12.21
2017-03-06T11:50:20.747Z,12.12
2017-03-06T11:51:29.824Z,12.19
2017-03-06T11:52:39.156Z,12.13
2017-03-06T11:53:48.637Z,12.17
2017-03-06T11:54:57.663Z,12.2
2017-03-06T11:56:06.721Z,12.24
2017-03-06T11:57:15.876Z,12.31
2017-03-06T11:58:25.321Z,12.37
2017-03-06T11:59:34.411Z,12.32
2017-03-06T12:00:43.589Z,12.35
2017-03-06T12:01:52.574Z,12.42
2017-03-06T12:03:01.653Z,12.53
2017-03-06T12:04:10.937Z,12.56
2017-03-06T12:05:19.995Z,12.54
2017-03-06T12:06:29.002Z,12.65
2017-03-06T12:07:38.098Z,12.68
2017-03-06T12:08:47.108Z,12.7
2017-03-06T12:09:56.794Z,12.67
2017-03-06T12:11:05.821Z,12.72
2017-03-06T12:12:14.797Z,12.67
2017-03-06T12:13:23.826Z,12.53
2017-03-06T12:14:32.820Z,12.53
2017-03-06T12:15:42.163Z,12.49
2017-03-06T12:16:51.172Z,12.57
2017-03-06T12:18:00.173Z,12.52
2017-03-06T12:19:09.264Z,12.46
2017-03-06T12:20:18.275Z,12.35
2017-03-06T12:21:27.596Z,12.31
2017-03-06T12:22:36.624Z,12.05
2017-03-06T12:23:45.623Z,12.07
2017-03-06T12:24:54.619Z,12.07
2017-03-06T12:26:03.648Z,12.02
2017-03-06T12:27:12.957Z,12.1
2017-03-06T12:28:22.378Z,12.05
2017-03-06T12:29:31.408Z,12.02
2017-03-06T12:30:40.431Z,11.95
2017-03-06T12:31:49.847Z,11.95
2017-03-06T12:32:59.150Z,11.96
2017-03-06T12:34:08.214Z,11.91
2017-03-06T12:35:17.203Z,11.91
2017-03-06T12:36:26.178Z,11.8
2017-03-06T12:37:35.160Z,11.85
2017-03-06T12:38:44.406Z,11.7
2017-03-06T12:39:53.493Z,11.72
2017-03-06T12:41:02.471Z,11.72
2017-03-06T12:42:11.464Z,11.65
2017-03-06T12:43:20.443Z,11.7
2017-03-06T12:44:30.217Z,11.64
2017-03-06T12:45:39.290Z,11.58
2017-03-06T12:46:48.300Z,11.61
2017-03-06T12:47:57.308Z,11.44
2017-03-06T12:49:06.412Z,11.43
2017-03-06T12:50:15.723Z,11.42
2017-03-06T12:51:24.735Z,11.32
2017-03-06T12:52:33.744Z,11.29
2017-03-06T12:53:43.141Z,11.19
2017-03-06T12:54:52.220Z,11.22
2017-03-06T12:56:01.594Z,11.15
2017-03-06T12:57:12.194Z,11.02
2017-03-06T12:58:21.225Z,11.04
2017-03-06T12:59:30.226Z,11.1
2017-03-06T13:00:39.242Z,11.09
2017-03-06T13:01:48.637Z,11.11
2017-03-06T13:02:57.613Z,11.07
2017-03-06T13:04:06.597Z,10.88
2017-03-06T13:05:15.673Z,10.89
2017-03-06T13:06:24.664Z,10.82
2017-03-06T13:07:34.003Z,10.74
2017-03-06T13:08:43.140Z,10.82
2017-03-06T13:09:52.219Z,10.84
2017-03-06T13:11:01.320Z,10.84
2017-03-06T13:12:10.329Z,10.79
2017-03-06T13:13:19.612Z,10.85
2017-03-06T13:14:28.602Z,10.79
2017-03-06T13:15:37.666Z,10.73
2017-03-06T13:16:46.740Z,10.67
2017-03-06T13:17:55.978Z,10.67
2017-03-06T13:19:05.499Z,10.63
2017-03-06T13:20:14.479Z,10.64
2017-03-06T13:21:23.776Z,10.61
2017-03-06T13:22:32.981Z,10.68
2017-03-06T13:23:42.064Z,10.73
2017-03-06T13:24:51.383Z,10.79
2017-03-06T13:26:00.362Z,10.67
2017-03-06T13:27:10.043Z,10.52
2017-03-06T13:28:19.121Z,10.52
2017-03-06T13:29:28.208Z,10.47
2017-03-06T13:30:37.502Z,10.59
2017-03-06T13:31:47.650Z,10.66
2017-03-06T13:32:56.732Z,10.61
2017-03-06T13:34:05.713Z,10.68
2017-03-06T13:35:14.773Z,10.74
2017-03-06T13:36:24.515Z,10.81
2017-03-06T13:37:33.512Z,10.81
2017-03-06T13:38:42.506Z,10.68
2017-03-06T13:39:51.580Z,10.68
2017-03-06T13:41:00.572Z,10.74
2017-03-06T13:42:09.884Z,10.79
2017-03-06T13:43:18.865Z,10.86
2017-03-06T13:44:27.854Z,10.92
2017-03-06T13:45:36.926Z,10.86
2017-03-06T13:46:45.900Z,10.88
2017-03-06T13:47:55.877Z,10.89
2017-03-06T13:49:04.857Z,10.82
2017-03-06T13:50:13.839Z,10.79
2017-03-06T13:51:23.263Z,10.7
2017-03-06T13:52:32.273Z,10.63
2017-03-06T13:53:41.549Z,10.64
2017-03-06T13:54:50.526Z,10.55
2017-03-06T13:55:59.585Z,10.52
2017-03-06T13:57:08.558Z,10.44
2017-03-06T13:58:17.582Z,10.47
2017-03-06T13:59:26.858Z,10.63
2017-03-06T14:00:35.845Z,10.59
2017-03-06T14:01:45.246Z,10.63
2017-03-06T14:02:54.224Z,10.64
2017-03-06T14:04:03.213Z,10.52
2017-03-06T14:05:12.465Z,10.47
2017-03-06T14:06:21.543Z,10.44
2017-03-06T14:07:30.542Z,10.52
2017-03-06T14:08:39.537Z,10.47
2017-03-06T14:09:48.534Z,10.47
2017-03-06T14:10:57.768Z,10.51
2017-03-06T14:12:06.796Z,10.47
2017-03-06T14:13:15.774Z,10.61
2017-03-06T14:14:24.755Z,10.64
2017-03-06T14:15:33.740Z,10.61
2017-03-06T14:16:43.442Z,10.68
2017-03-06T14:17:52.419Z,10.71
2017-03-06T14:19:01.406Z,10.67
2017-03-06T14:20:10.420Z,10.52
2017-03-06T14:21:19.513Z,10.45
2017-03-06T14:22:28.789Z,10.44
2017-03-06T14:23:37.761Z,10.36
2017-03-06T14:24:46.744Z,10.3
2017-03-06T14:25:55.757Z,10.34
2017-03-06T14:27:04.826Z,10.41
2017-03-06T14:28:14.178Z,10.48
2017-03-06T14:29:23.209Z,10.55
2017-03-06T14:30:32.182Z,10.47
2017-03-06T14:31:41.244Z,10.56
2017-03-06T14:32:50.476Z,10.51
2017-03-06T14:33:59.818Z,10.42
2017-03-06T14:35:08.942Z,10.52
2017-03-06T14:36:18.058Z,10.53
2017-03-06T14:37:27.132Z,10.68
2017-03-06T14:38:36.115Z,10.73
2017-03-06T14:39:45.459Z,10.7
2017-03-06T14:40:54.657Z,10.73
2017-03-06T14:42:03.642Z,10.81
2017-03-06T14:43:12.695Z,10.84
2017-03-06T14:44:21.753Z,10.96
2017-03-06T14:45:31.036Z,10.94
2017-03-06T14:46:40.165Z,10.88
2017-03-06T14:47:49.254Z,10.94
2017-03-06T14:48:58.301Z,10.97
2017-03-06T14:50:07.317Z,10.96
2017-03-06T14:51:17.012Z,11.02
2017-03-06T14:52:26.016Z,10.94
2017-03-06T14:53:34.996Z,10.86
2017-03-06T14:54:44.020Z,10.85
2017-03-06T14:55:53.129Z,10.88
2017-03-06T14:57:03.235Z,10.81
2017-03-06T14:58:12.428Z,10.76
2017-03-06T14:59:21.452Z,10.76
2017-03-06T15:00:30.665Z,10.81
2017-03-06T15:01:39.657Z,10.81
2017-03-06T15:02:49.024Z,10.74
2017-03-06T15:03:58.007Z,10.74
2017-03-06T15:05:06.985Z,10.79
2017-03-06T15:06:16.398Z,10.89